sensor_id;sensor_type;location;lat;lon;timestamp;temperature;humidity
61386;DHT22;47256;18.904;-99.054;2022-08-07T00:02:04;30.00;58.10
61386;DHT22;47256;18.904;-99.054;2022-08-07T00:04:31;29.90;57.80
61386;DHT22;47256;18.904;-99.054;2022-08-07T00:06:58;29.80;57.70
61386;DHT22;47256;18.904;-99.054;2022-08-07T00:09:25;29.80;59.00
61386;DHT22;47256;18.904;-99.054;2022-08-07T00:11:52;29.60;58.20
61386;DHT22;47256;18.904;-99.054;2022-08-07T00:14:21;29.60;58.10
61386;DHT22;47256;18.904;-99.054;2022-08-07T00:16:48;29.60;58.40
61386;DHT22;47256;18.904;-99.054;2022-08-07T00:19:16;29.60;61.80
61386;DHT22;47256;18.904;-99.054;2022-08-07T00:21:43;29.60;59.80
61386;DHT22;47256;18.904;-99.054;2022-08-07T00:24:10;29.40;59.00
61386;DHT22;47256;18.904;-99.054;2022-08-07T00:26:37;29.30;59.20
61386;DHT22;47256;18.904;-99.054;2022-08-07T00:29:04;29.30;59.60
61386;DHT22;47256;18.904;-99.054;2022-08-07T00:31:31;29.20;59.90
61386;DHT22;47256;18.904;-99.054;2022-08-07T00:33:58;29.10;59.10
61386;DHT22;47256;18.904;-99.054;2022-08-07T00:36:25;29.10;59.60
61386;DHT22;47256;18.904;-99.054;2022-08-07T00:38:52;29.00;59.80
61386;DHT22;47256;18.904;-99.054;2022-08-07T00:41:31;28.90;58.70
61386;DHT22;47256;18.904;-99.054;2022-08-07T00:43:59;28.90;59.10
61386;DHT22;47256;18.904;-99.054;2022-08-07T00:46:26;28.80;59.80
61386;DHT22;47256;18.904;-99.054;2022-08-07T00:48:54;28.80;60.30
61386;DHT22;47256;18.904;-99.054;2022-08-07T00:51:21;28.80;59.30
61386;DHT22;47256;18.904;-99.054;2022-08-07T00:53:48;28.70;59.90
61386;DHT22;47256;18.904;-99.054;2022-08-07T00:56:15;28.60;61.00
61386;DHT22;47256;18.904;-99.054;2022-08-07T00:58:44;28.60;61.30
61386;DHT22;47256;18.904;-99.054;2022-08-07T01:01:11;28.40;61.00
61386;DHT22;47256;18.904;-99.054;2022-08-07T01:03:39;28.40;62.40
61386;DHT22;47256;18.904;-99.054;2022-08-07T01:06:06;28.30;63.40
61386;DHT22;47256;18.904;-99.054;2022-08-07T01:08:34;28.30;62.80
61386;DHT22;47256;18.904;-99.054;2022-08-07T01:11:01;28.30;63.50
61386;DHT22;47256;18.904;-99.054;2022-08-07T01:13:29;28.30;62.90
61386;DHT22;47256;18.904;-99.054;2022-08-07T01:15:57;28.40;62.00
61386;DHT22;47256;18.904;-99.054;2022-08-07T01:18:25;28.50;62.90
61386;DHT22;47256;18.904;-99.054;2022-08-07T01:21:16;28.60;63.10
61386;DHT22;47256;18.904;-99.054;2022-08-07T01:23:44;28.60;63.90
61386;DHT22;47256;18.904;-99.054;2022-08-07T01:26:15;28.70;64.20
61386;DHT22;47256;18.904;-99.054;2022-08-07T01:28:46;28.70;65.40
61386;DHT22;47256;18.904;-99.054;2022-08-07T01:31:17;28.60;64.80
61386;DHT22;47256;18.904;-99.054;2022-08-07T01:33:47;28.50;66.50
61386;DHT22;47256;18.904;-99.054;2022-08-07T01:36:15;28.40;66.70
61386;DHT22;47256;18.904;-99.054;2022-08-07T01:38:44;28.40;66.90
61386;DHT22;47256;18.904;-99.054;2022-08-07T01:41:19;28.40;67.40
61386;DHT22;47256;18.904;-99.054;2022-08-07T01:43:49;28.40;67.70
61386;DHT22;47256;18.904;-99.054;2022-08-07T01:46:18;28.40;67.60
61386;DHT22;47256;18.904;-99.054;2022-08-07T01:48:47;28.40;67.70
61386;DHT22;47256;18.904;-99.054;2022-08-07T01:51:21;28.30;67.70
61386;DHT22;47256;18.904;-99.054;2022-08-07T01:53:54;28.30;68.20
61386;DHT22;47256;18.904;-99.054;2022-08-07T01:56:46;28.40;68.70
61386;DHT22;47256;18.904;-99.054;2022-08-07T01:59:26;28.40;70.60
61386;DHT22;47256;18.904;-99.054;2022-08-07T02:02:04;28.30;71.90
61386;DHT22;47256;18.904;-99.054;2022-08-07T02:04:52;28.30;73.10
61386;DHT22;47256;18.904;-99.054;2022-08-07T02:07:23;28.20;71.00
61386;DHT22;47256;18.904;-99.054;2022-08-07T02:09:54;28.20;70.90
61386;DHT22;47256;18.904;-99.054;2022-08-07T02:12:25;28.20;71.60
61386;DHT22;47256;18.904;-99.054;2022-08-07T02:14:57;28.00;71.50
61386;DHT22;47256;18.904;-99.054;2022-08-07T02:17:37;27.90;71.90
61386;DHT22;47256;18.904;-99.054;2022-08-07T02:20:06;27.90;72.80
61386;DHT22;47256;18.904;-99.054;2022-08-07T02:22:38;27.80;73.00
61386;DHT22;47256;18.904;-99.054;2022-08-07T02:25:08;27.80;73.30
61386;DHT22;47256;18.904;-99.054;2022-08-07T02:27:38;27.70;73.10
61386;DHT22;47256;18.904;-99.054;2022-08-07T02:30:08;27.70;72.80
61386;DHT22;47256;18.904;-99.054;2022-08-07T02:32:36;27.70;72.90
61386;DHT22;47256;18.904;-99.054;2022-08-07T02:35:06;27.70;72.90
61386;DHT22;47256;18.904;-99.054;2022-08-07T02:37:36;27.80;73.40
61386;DHT22;47256;18.904;-99.054;2022-08-07T02:40:08;27.70;73.40
61386;DHT22;47256;18.904;-99.054;2022-08-07T02:42:38;27.60;74.50
61386;DHT22;47256;18.904;-99.054;2022-08-07T02:45:09;27.60;75.50
61386;DHT22;47256;18.904;-99.054;2022-08-07T02:47:38;27.60;76.40
61386;DHT22;47256;18.904;-99.054;2022-08-07T02:50:15;27.60;77.90
61386;DHT22;47256;18.904;-99.054;2022-08-07T02:52:51;27.40;77.70
61386;DHT22;47256;18.904;-99.054;2022-08-07T02:55:24;27.30;75.70
61386;DHT22;47256;18.904;-99.054;2022-08-07T02:57:54;27.30;77.10
61386;DHT22;47256;18.904;-99.054;2022-08-07T03:00:27;27.30;77.00
61386;DHT22;47256;18.904;-99.054;2022-08-07T03:02:58;27.20;79.00
61386;DHT22;47256;18.904;-99.054;2022-08-07T03:05:27;27.00;78.60
61386;DHT22;47256;18.904;-99.054;2022-08-07T03:07:55;26.90;78.90
61386;DHT22;47256;18.904;-99.054;2022-08-07T03:10:24;26.90;78.60
61386;DHT22;47256;18.904;-99.054;2022-08-07T03:12:53;27.00;78.30
61386;DHT22;47256;18.904;-99.054;2022-08-07T03:15:22;26.90;78.40
61386;DHT22;47256;18.904;-99.054;2022-08-07T03:17:50;26.90;78.90
61386;DHT22;47256;18.904;-99.054;2022-08-07T03:20:18;26.90;79.10
61386;DHT22;47256;18.904;-99.054;2022-08-07T03:22:47;26.80;78.90
61386;DHT22;47256;18.904;-99.054;2022-08-07T03:25:16;26.80;79.00
61386;DHT22;47256;18.904;-99.054;2022-08-07T03:27:46;26.70;79.80
61386;DHT22;47256;18.904;-99.054;2022-08-07T03:30:16;26.60;80.60
61386;DHT22;47256;18.904;-99.054;2022-08-07T03:32:48;26.40;81.40
61386;DHT22;47256;18.904;-99.054;2022-08-07T03:35:23;26.30;81.60
61386;DHT22;47256;18.904;-99.054;2022-08-07T03:38:06;26.30;80.80
61386;DHT22;47256;18.904;-99.054;2022-08-07T03:40:37;26.40;80.70
61386;DHT22;47256;18.904;-99.054;2022-08-07T03:43:12;26.40;80.70
61386;DHT22;47256;18.904;-99.054;2022-08-07T03:45:47;26.40;81.00
61386;DHT22;47256;18.904;-99.054;2022-08-07T03:48:22;26.40;80.30
61386;DHT22;47256;18.904;-99.054;2022-08-07T03:50:53;26.40;81.30
61386;DHT22;47256;18.904;-99.054;2022-08-07T03:53:21;26.30;80.50
61386;DHT22;47256;18.904;-99.054;2022-08-07T03:55:50;26.30;80.70
61386;DHT22;47256;18.904;-99.054;2022-08-07T03:58:20;26.20;80.50
61386;DHT22;47256;18.904;-99.054;2022-08-07T04:00:53;26.30;79.80
61386;DHT22;47256;18.904;-99.054;2022-08-07T04:03:23;26.30;80.10
61386;DHT22;47256;18.904;-99.054;2022-08-07T04:05:51;26.30;80.80
61386;DHT22;47256;18.904;-99.054;2022-08-07T04:08:23;26.30;80.40
61386;DHT22;47256;18.904;-99.054;2022-08-07T04:10:51;26.30;79.80
61386;DHT22;47256;18.904;-99.054;2022-08-07T04:13:21;26.20;82.10
61386;DHT22;47256;18.904;-99.054;2022-08-07T04:15:49;26.00;82.10
61386;DHT22;47256;18.904;-99.054;2022-08-07T04:18:18;26.00;81.40
61386;DHT22;47256;18.904;-99.054;2022-08-07T04:20:47;25.90;82.20
61386;DHT22;47256;18.904;-99.054;2022-08-07T04:23:16;25.80;82.70
61386;DHT22;47256;18.904;-99.054;2022-08-07T04:25:45;25.80;81.90
61386;DHT22;47256;18.904;-99.054;2022-08-07T04:28:14;25.90;81.60
61386;DHT22;47256;18.904;-99.054;2022-08-07T04:30:49;25.90;81.50
61386;DHT22;47256;18.904;-99.054;2022-08-07T04:33:22;25.90;81.20
61386;DHT22;47256;18.904;-99.054;2022-08-07T04:35:52;25.90;81.10
61386;DHT22;47256;18.904;-99.054;2022-08-07T04:38:24;26.00;81.20
61386;DHT22;47256;18.904;-99.054;2022-08-07T04:40:53;26.00;80.90
61386;DHT22;47256;18.904;-99.054;2022-08-07T04:43:28;26.00;80.70
61386;DHT22;47256;18.904;-99.054;2022-08-07T04:54:51;25.60;81.90
61386;DHT22;47256;18.904;-99.054;2022-08-07T05:00:15;25.50;82.30
61386;DHT22;47256;18.904;-99.054;2022-08-07T05:05:51;25.20;84.80
61386;DHT22;47256;18.904;-99.054;2022-08-07T05:11:23;25.20;84.00
61386;DHT22;47256;18.904;-99.054;2022-08-07T05:14:12;25.20;85.70
61386;DHT22;47256;18.904;-99.054;2022-08-07T05:16:42;25.20;83.70
61386;DHT22;47256;18.904;-99.054;2022-08-07T05:19:17;25.20;84.60
61386;DHT22;47256;18.904;-99.054;2022-08-07T05:21:52;25.20;84.50
61386;DHT22;47256;18.904;-99.054;2022-08-07T05:24:21;25.30;84.80
61386;DHT22;47256;18.904;-99.054;2022-08-07T05:26:52;25.30;84.40
61386;DHT22;47256;18.904;-99.054;2022-08-07T05:29:20;25.40;84.50
61386;DHT22;47256;18.904;-99.054;2022-08-07T05:31:50;25.30;85.50
61386;DHT22;47256;18.904;-99.054;2022-08-07T05:34:22;25.30;85.80
61386;DHT22;47256;18.904;-99.054;2022-08-07T05:36:51;25.30;85.80
61386;DHT22;47256;18.904;-99.054;2022-08-07T05:39:36;25.20;86.30
61386;DHT22;47256;18.904;-99.054;2022-08-07T05:42:05;25.20;87.20
61386;DHT22;47256;18.904;-99.054;2022-08-07T05:44:35;25.20;87.00
61386;DHT22;47256;18.904;-99.054;2022-08-07T05:47:05;25.20;87.30
61386;DHT22;47256;18.904;-99.054;2022-08-07T05:49:36;25.30;87.80
61386;DHT22;47256;18.904;-99.054;2022-08-07T05:52:04;25.20;87.40
61386;DHT22;47256;18.904;-99.054;2022-08-07T05:54:32;25.20;87.10
61386;DHT22;47256;18.904;-99.054;2022-08-07T05:57:02;25.10;87.10
61386;DHT22;47256;18.904;-99.054;2022-08-07T05:59:31;25.10;87.20
61386;DHT22;47256;18.904;-99.054;2022-08-07T06:02:05;25.00;87.30
61386;DHT22;47256;18.904;-99.054;2022-08-07T06:04:40;25.00;87.80
61386;DHT22;47256;18.904;-99.054;2022-08-07T06:07:08;24.90;87.60
61386;DHT22;47256;18.904;-99.054;2022-08-07T06:09:39;24.80;88.10
61386;DHT22;47256;18.904;-99.054;2022-08-07T06:12:08;24.80;90.20
61386;DHT22;47256;18.904;-99.054;2022-08-07T06:14:36;24.70;89.50
61386;DHT22;47256;18.904;-99.054;2022-08-07T06:17:05;24.60;90.00
61386;DHT22;47256;18.904;-99.054;2022-08-07T06:19:38;24.60;89.80
61386;DHT22;47256;18.904;-99.054;2022-08-07T06:22:06;24.50;88.80
61386;DHT22;47256;18.904;-99.054;2022-08-07T06:24:34;24.60;88.80
61386;DHT22;47256;18.904;-99.054;2022-08-07T06:27:02;24.50;88.40
61386;DHT22;47256;18.904;-99.054;2022-08-07T06:29:32;24.60;88.00
61386;DHT22;47256;18.904;-99.054;2022-08-07T06:32:00;24.60;87.80
61386;DHT22;47256;18.904;-99.054;2022-08-07T06:34:27;24.60;89.00
61386;DHT22;47256;18.904;-99.054;2022-08-07T06:36:54;24.60;88.60
61386;DHT22;47256;18.904;-99.054;2022-08-07T06:39:27;24.60;89.10
61386;DHT22;47256;18.904;-99.054;2022-08-07T06:42:16;24.60;86.80
61386;DHT22;47256;18.904;-99.054;2022-08-07T06:45:06;24.60;87.90
61386;DHT22;47256;18.904;-99.054;2022-08-07T06:47:35;24.60;87.20
61386;DHT22;47256;18.904;-99.054;2022-08-07T06:50:02;24.60;86.80
61386;DHT22;47256;18.904;-99.054;2022-08-07T06:52:37;24.60;85.70
61386;DHT22;47256;18.904;-99.054;2022-08-07T06:55:17;24.70;86.60
61386;DHT22;47256;18.904;-99.054;2022-08-07T06:57:45;24.70;88.00
61386;DHT22;47256;18.904;-99.054;2022-08-07T07:00:16;24.60;87.70
61386;DHT22;47256;18.904;-99.054;2022-08-07T07:02:46;24.70;87.70
61386;DHT22;47256;18.904;-99.054;2022-08-07T07:05:14;24.60;89.10
61386;DHT22;47256;18.904;-99.054;2022-08-07T07:07:44;24.60;87.70
61386;DHT22;47256;18.904;-99.054;2022-08-07T07:10:13;24.60;87.90
61386;DHT22;47256;18.904;-99.054;2022-08-07T07:12:52;24.60;88.20
61386;DHT22;47256;18.904;-99.054;2022-08-07T07:15:29;24.60;87.10
61386;DHT22;47256;18.904;-99.054;2022-08-07T07:18:13;24.60;86.60
61386;DHT22;47256;18.904;-99.054;2022-08-07T07:23:12;24.60;87.10
61386;DHT22;47256;18.904;-99.054;2022-08-07T07:25:41;24.60;87.50
61386;DHT22;47256;18.904;-99.054;2022-08-07T07:28:43;24.50;87.10
61386;DHT22;47256;18.904;-99.054;2022-08-07T07:31:17;24.40;87.00
61386;DHT22;47256;18.904;-99.054;2022-08-07T07:33:48;24.40;88.00
61386;DHT22;47256;18.904;-99.054;2022-08-07T07:36:19;24.40;87.80
61386;DHT22;47256;18.904;-99.054;2022-08-07T07:38:47;24.50;86.60
61386;DHT22;47256;18.904;-99.054;2022-08-07T07:41:17;24.50;86.70
61386;DHT22;47256;18.904;-99.054;2022-08-07T07:43:46;24.30;88.10
61386;DHT22;47256;18.904;-99.054;2022-08-07T07:46:14;24.20;88.20
61386;DHT22;47256;18.904;-99.054;2022-08-07T07:48:42;24.20;87.10
61386;DHT22;47256;18.904;-99.054;2022-08-07T07:51:11;24.30;87.10
61386;DHT22;47256;18.904;-99.054;2022-08-07T07:53:43;24.30;87.60
61386;DHT22;47256;18.904;-99.054;2022-08-07T07:56:12;24.30;87.00
61386;DHT22;47256;18.904;-99.054;2022-08-07T07:58:40;24.30;87.20
61386;DHT22;47256;18.904;-99.054;2022-08-07T08:01:09;24.30;87.80
61386;DHT22;47256;18.904;-99.054;2022-08-07T08:03:37;24.20;88.70
61386;DHT22;47256;18.904;-99.054;2022-08-07T08:06:07;24.10;88.30
61386;DHT22;47256;18.904;-99.054;2022-08-07T08:08:35;24.10;88.00
61386;DHT22;47256;18.904;-99.054;2022-08-07T08:11:07;24.10;88.00
61386;DHT22;47256;18.904;-99.054;2022-08-07T08:13:39;24.20;88.30
61386;DHT22;47256;18.904;-99.054;2022-08-07T08:16:07;24.10;88.50
61386;DHT22;47256;18.904;-99.054;2022-08-07T08:18:38;24.00;88.20
61386;DHT22;47256;18.904;-99.054;2022-08-07T08:21:05;24.00;88.50
61386;DHT22;47256;18.904;-99.054;2022-08-07T08:23:54;24.00;88.50
61386;DHT22;47256;18.904;-99.054;2022-08-07T08:26:40;24.00;88.10
61386;DHT22;47256;18.904;-99.054;2022-08-07T08:29:26;24.10;88.30
61386;DHT22;47256;18.904;-99.054;2022-08-07T08:31:54;24.10;88.30
61386;DHT22;47256;18.904;-99.054;2022-08-07T08:34:33;24.10;88.20
61386;DHT22;47256;18.904;-99.054;2022-08-07T08:37:02;24.00;87.70
61386;DHT22;47256;18.904;-99.054;2022-08-07T08:39:30;24.10;87.90
61386;DHT22;47256;18.904;-99.054;2022-08-07T08:42:03;24.10;87.70
61386;DHT22;47256;18.904;-99.054;2022-08-07T08:44:46;24.10;88.20
61386;DHT22;47256;18.904;-99.054;2022-08-07T08:50:20;23.80;89.80
61386;DHT22;47256;18.904;-99.054;2022-08-07T08:55:26;23.80;88.50
61386;DHT22;47256;18.904;-99.054;2022-08-07T08:58:33;23.90;88.20
61386;DHT22;47256;18.904;-99.054;2022-08-07T09:01:00;24.00;88.40
61386;DHT22;47256;18.904;-99.054;2022-08-07T09:14:49;23.80;89.90
61386;DHT22;47256;18.904;-99.054;2022-08-07T09:20:17;23.60;90.20
61386;DHT22;47256;18.904;-99.054;2022-08-07T09:28:40;23.50;89.90
61386;DHT22;47256;18.904;-99.054;2022-08-07T09:31:24;23.60;90.00
61386;DHT22;47256;18.904;-99.054;2022-08-07T09:36:43;23.60;90.20
61386;DHT22;47256;18.904;-99.054;2022-08-07T09:39:45;23.70;90.10
61386;DHT22;47256;18.904;-99.054;2022-08-07T09:42:24;23.70;90.00
61386;DHT22;47256;18.904;-99.054;2022-08-07T09:45:19;23.60;90.30
61386;DHT22;47256;18.904;-99.054;2022-08-07T09:53:02;23.60;90.10
61386;DHT22;47256;18.904;-99.054;2022-08-07T10:01:57;23.60;90.00
61386;DHT22;47256;18.904;-99.054;2022-08-07T10:17:58;23.30;90.90
61386;DHT22;47256;18.904;-99.054;2022-08-07T10:23:33;23.30;91.40
61386;DHT22;47256;18.904;-99.054;2022-08-07T10:26:29;23.30;91.20
61386;DHT22;47256;18.904;-99.054;2022-08-07T10:29:15;23.30;91.70
61386;DHT22;47256;18.904;-99.054;2022-08-07T10:45:56;23.10;92.20
61386;DHT22;47256;18.904;-99.054;2022-08-07T10:48:56;23.00;92.40
61386;DHT22;47256;18.904;-99.054;2022-08-07T10:52:05;23.00;92.20
61386;DHT22;47256;18.904;-99.054;2022-08-07T10:54:52;23.00;92.20
61386;DHT22;47256;18.904;-99.054;2022-08-07T11:00:11;23.10;92.50
61386;DHT22;47256;18.904;-99.054;2022-08-07T11:14:03;22.80;92.00
61386;DHT22;47256;18.904;-99.054;2022-08-07T11:16:49;22.80;91.70
61386;DHT22;47256;18.904;-99.054;2022-08-07T11:22:24;22.80;91.30
61386;DHT22;47256;18.904;-99.054;2022-08-07T11:30:13;22.70;92.20
61386;DHT22;47256;18.904;-99.054;2022-08-07T11:35:18;22.60;92.10
61386;DHT22;47256;18.904;-99.054;2022-08-07T11:38:10;22.60;92.10
61386;DHT22;47256;18.904;-99.054;2022-08-07T11:52:12;22.70;92.20
61386;DHT22;47256;18.904;-99.054;2022-08-07T11:57:32;22.60;92.00
61386;DHT22;47256;18.904;-99.054;2022-08-07T12:00:14;22.60;92.00
61386;DHT22;47256;18.904;-99.054;2022-08-07T12:03:10;22.50;92.10
61386;DHT22;47256;18.904;-99.054;2022-08-07T12:09:06;22.60;92.30
61386;DHT22;47256;18.904;-99.054;2022-08-07T12:11:44;22.50;92.70
61386;DHT22;47256;18.904;-99.054;2022-08-07T12:17:04;22.50;92.70
61386;DHT22;47256;18.904;-99.054;2022-08-07T12:19:57;22.50;92.70
61386;DHT22;47256;18.904;-99.054;2022-08-07T12:22:45;22.40;92.40
61386;DHT22;47256;18.904;-99.054;2022-08-07T12:25:29;22.30;92.40
61386;DHT22;47256;18.904;-99.054;2022-08-07T12:28:44;22.30;92.70
61386;DHT22;47256;18.904;-99.054;2022-08-07T12:33:56;22.20;93.30
61386;DHT22;47256;18.904;-99.054;2022-08-07T12:36:24;22.20;93.10
61386;DHT22;47256;18.904;-99.054;2022-08-07T12:38:54;22.30;93.00
61386;DHT22;47256;18.904;-99.054;2022-08-07T12:41:25;22.30;93.00
61386;DHT22;47256;18.904;-99.054;2022-08-07T12:43:55;22.30;92.80
61386;DHT22;47256;18.904;-99.054;2022-08-07T12:46:47;22.20;93.00
61386;DHT22;47256;18.904;-99.054;2022-08-07T12:49:47;22.30;93.70
61386;DHT22;47256;18.904;-99.054;2022-08-07T12:57:51;22.40;93.70
61386;DHT22;47256;18.904;-99.054;2022-08-07T13:00:26;22.40;93.70
61386;DHT22;47256;18.904;-99.054;2022-08-07T13:06:10;22.30;94.00
61386;DHT22;47256;18.904;-99.054;2022-08-07T13:14:24;22.40;93.40
61386;DHT22;47256;18.904;-99.054;2022-08-07T13:17:18;22.40;93.60
61386;DHT22;47256;18.904;-99.054;2022-08-07T13:19:54;22.40;94.00
61386;DHT22;47256;18.904;-99.054;2022-08-07T13:25:03;22.40;94.30
61386;DHT22;47256;18.904;-99.054;2022-08-07T13:27:41;22.50;94.40
61386;DHT22;47256;18.904;-99.054;2022-08-07T13:30:11;22.50;94.10
61386;DHT22;47256;18.904;-99.054;2022-08-07T13:32:54;22.60;94.10
61386;DHT22;47256;18.904;-99.054;2022-08-07T13:35:30;22.70;94.10
61386;DHT22;47256;18.904;-99.054;2022-08-07T13:38:16;22.70;93.90
61386;DHT22;47256;18.904;-99.054;2022-08-07T13:43:16;22.80;94.80
61386;DHT22;47256;18.904;-99.054;2022-08-07T13:45:51;22.80;94.80
61386;DHT22;47256;18.904;-99.054;2022-08-07T13:48:21;22.80;94.90
61386;DHT22;47256;18.904;-99.054;2022-08-07T13:50:49;22.90;95.30
61386;DHT22;47256;18.904;-99.054;2022-08-07T13:53:21;22.90;95.40
61386;DHT22;47256;18.904;-99.054;2022-08-07T13:55:50;23.00;95.30
61386;DHT22;47256;18.904;-99.054;2022-08-07T13:58:17;23.00;95.10
61386;DHT22;47256;18.904;-99.054;2022-08-07T14:01:12;23.00;95.30
61386;DHT22;47256;18.904;-99.054;2022-08-07T14:03:41;23.00;95.40
61386;DHT22;47256;18.904;-99.054;2022-08-07T14:06:10;23.00;95.10
61386;DHT22;47256;18.904;-99.054;2022-08-07T14:08:46;23.00;95.40
61386;DHT22;47256;18.904;-99.054;2022-08-07T14:11:15;23.00;94.80
61386;DHT22;47256;18.904;-99.054;2022-08-07T14:13:47;23.10;94.70
61386;DHT22;47256;18.904;-99.054;2022-08-07T14:16:19;23.20;94.40
61386;DHT22;47256;18.904;-99.054;2022-08-07T14:18:51;23.20;93.50
61386;DHT22;47256;18.904;-99.054;2022-08-07T14:21:26;23.20;93.20
61386;DHT22;47256;18.904;-99.054;2022-08-07T14:24:00;23.20;92.00
61386;DHT22;47256;18.904;-99.054;2022-08-07T14:26:42;23.20;93.30
61386;DHT22;47256;18.904;-99.054;2022-08-07T14:29:12;23.40;92.80
61386;DHT22;47256;18.904;-99.054;2022-08-07T14:31:43;23.50;93.10
61386;DHT22;47256;18.904;-99.054;2022-08-07T14:34:14;23.60;93.50
61386;DHT22;47256;18.904;-99.054;2022-08-07T14:36:42;23.70;92.40
61386;DHT22;47256;18.904;-99.054;2022-08-07T14:39:10;23.80;92.90
61386;DHT22;47256;18.904;-99.054;2022-08-07T14:41:38;24.00;92.90
61386;DHT22;47256;18.904;-99.054;2022-08-07T14:44:09;24.10;92.80
61386;DHT22;47256;18.904;-99.054;2022-08-07T14:46:37;24.20;92.50
61386;DHT22;47256;18.904;-99.054;2022-08-07T14:49:06;24.40;92.60
61386;DHT22;47256;18.904;-99.054;2022-08-07T14:51:34;24.50;93.00
61386;DHT22;47256;18.904;-99.054;2022-08-07T14:54:03;24.60;91.30
61386;DHT22;47256;18.904;-99.054;2022-08-07T14:56:31;24.70;91.80
61386;DHT22;47256;18.904;-99.054;2022-08-07T14:59:02;24.80;90.60
61386;DHT22;47256;18.904;-99.054;2022-08-07T15:01:36;24.80;90.60
61386;DHT22;47256;18.904;-99.054;2022-08-07T15:04:08;24.90;87.70
61386;DHT22;47256;18.904;-99.054;2022-08-07T15:06:38;25.00;91.70
61386;DHT22;47256;18.904;-99.054;2022-08-07T15:09:14;25.20;88.30
61386;DHT22;47256;18.904;-99.054;2022-08-07T15:11:57;25.20;89.60
61386;DHT22;47256;18.904;-99.054;2022-08-07T15:14:27;25.30;87.90
61386;DHT22;47256;18.904;-99.054;2022-08-07T15:17:14;25.40;89.50
61386;DHT22;47256;18.904;-99.054;2022-08-07T15:19:59;25.50;85.60
61386;DHT22;47256;18.904;-99.054;2022-08-07T15:22:31;25.50;87.70
61386;DHT22;47256;18.904;-99.054;2022-08-07T15:25:10;25.60;90.30
61386;DHT22;47256;18.904;-99.054;2022-08-07T15:27:40;25.70;89.10
61386;DHT22;47256;18.904;-99.054;2022-08-07T15:30:09;25.90;90.90
61386;DHT22;47256;18.904;-99.054;2022-08-07T15:32:43;25.90;91.10
61386;DHT22;47256;18.904;-99.054;2022-08-07T15:35:19;26.00;90.10
61386;DHT22;47256;18.904;-99.054;2022-08-07T15:37:54;26.10;87.50
61386;DHT22;47256;18.904;-99.054;2022-08-07T15:40:24;26.00;88.00
61386;DHT22;47256;18.904;-99.054;2022-08-07T15:42:58;26.10;86.80
61386;DHT22;47256;18.904;-99.054;2022-08-07T15:45:39;26.10;86.90
61386;DHT22;47256;18.904;-99.054;2022-08-07T15:50:47;26.40;86.20
61386;DHT22;47256;18.904;-99.054;2022-08-07T15:53:41;26.50;86.50
61386;DHT22;47256;18.904;-99.054;2022-08-07T15:56:10;26.60;86.30
61386;DHT22;47256;18.904;-99.054;2022-08-07T15:58:52;26.70;86.60
61386;DHT22;47256;18.904;-99.054;2022-08-07T16:04:02;26.90;85.30
61386;DHT22;47256;18.904;-99.054;2022-08-07T16:06:37;27.00;84.90
61386;DHT22;47256;18.904;-99.054;2022-08-07T16:09:13;27.00;81.30
61386;DHT22;47256;18.904;-99.054;2022-08-07T16:17:51;27.10;84.10
61386;DHT22;47256;18.904;-99.054;2022-08-07T16:20:46;27.10;83.60
61386;DHT22;47256;18.904;-99.054;2022-08-07T16:26:11;27.00;86.10
61386;DHT22;47256;18.904;-99.054;2022-08-07T16:31:29;27.20;83.80
61386;DHT22;47256;18.904;-99.054;2022-08-07T16:34:06;27.40;85.80
61386;DHT22;47256;18.904;-99.054;2022-08-07T16:39:28;27.60;80.90
61386;DHT22;47256;18.904;-99.054;2022-08-07T16:44:57;27.90;83.60
61386;DHT22;47256;18.904;-99.054;2022-08-07T16:50:41;28.00;84.60
61386;DHT22;47256;18.904;-99.054;2022-08-07T16:59:00;28.30;81.70
61386;DHT22;47256;18.904;-99.054;2022-08-07T17:01:35;28.40;81.50
61386;DHT22;47256;18.904;-99.054;2022-08-07T17:09:56;28.80;80.50
61386;DHT22;47256;18.904;-99.054;2022-08-07T17:21:02;29.20;76.80
61386;DHT22;47256;18.904;-99.054;2022-08-07T17:23:39;29.20;79.10
61386;DHT22;47256;18.904;-99.054;2022-08-07T17:29:12;29.10;78.20
61386;DHT22;47256;18.904;-99.054;2022-08-07T17:34:44;29.20;78.30
61386;DHT22;47256;18.904;-99.054;2022-08-07T17:37:20;29.30;78.00
61386;DHT22;47256;18.904;-99.054;2022-08-07T17:40:19;29.30;79.70
61386;DHT22;47256;18.904;-99.054;2022-08-07T17:42:54;29.40;77.50
61386;DHT22;47256;18.904;-99.054;2022-08-07T17:45:38;29.50;75.80
61386;DHT22;47256;18.904;-99.054;2022-08-07T17:48:12;29.40;73.10
61386;DHT22;47256;18.904;-99.054;2022-08-07T17:56:06;29.60;76.40
61386;DHT22;47256;18.904;-99.054;2022-08-07T17:58:42;29.70;76.00
61386;DHT22;47256;18.904;-99.054;2022-08-07T18:01:15;29.70;72.70
61386;DHT22;47256;18.904;-99.054;2022-08-07T18:06:45;29.80;74.60
61386;DHT22;47256;18.904;-99.054;2022-08-07T18:09:19;29.80;71.50
61386;DHT22;47256;18.904;-99.054;2022-08-07T18:12:22;29.80;72.20
61386;DHT22;47256;18.904;-99.054;2022-08-07T18:15:05;29.90;71.90
61386;DHT22;47256;18.904;-99.054;2022-08-07T18:17:38;29.90;73.30
61386;DHT22;47256;18.904;-99.054;2022-08-07T18:20:13;29.90;70.20
61386;DHT22;47256;18.904;-99.054;2022-08-07T18:25:23;29.90;72.50
61386;DHT22;47256;18.904;-99.054;2022-08-07T18:31:15;30.00;73.60
61386;DHT22;47256;18.904;-99.054;2022-08-07T18:33:56;30.10;75.80
61386;DHT22;47256;18.904;-99.054;2022-08-07T18:42:20;30.40;77.70
61386;DHT22;47256;18.904;-99.054;2022-08-07T18:45:07;30.50;75.50
61386;DHT22;47256;18.904;-99.054;2022-08-07T18:47:55;30.70;75.50
61386;DHT22;47256;18.904;-99.054;2022-08-07T18:53:40;31.10;73.10
61386;DHT22;47256;18.904;-99.054;2022-08-07T19:07:31;31.40;71.90
61386;DHT22;47256;18.904;-99.054;2022-08-07T19:10:06;31.30;72.30
61386;DHT22;47256;18.904;-99.054;2022-08-07T19:13:02;31.40;72.80
61386;DHT22;47256;18.904;-99.054;2022-08-07T19:23:44;31.50;72.40
61386;DHT22;47256;18.904;-99.054;2022-08-07T19:26:13;31.40;64.20
61386;DHT22;47256;18.904;-99.054;2022-08-07T19:28:53;31.30;66.60
61386;DHT22;47256;18.904;-99.054;2022-08-07T19:31:31;31.40;70.40
61386;DHT22;47256;18.904;-99.054;2022-08-07T19:34:00;31.50;66.70
61386;DHT22;47256;18.904;-99.054;2022-08-07T19:36:30;31.60;67.50
61386;DHT22;47256;18.904;-99.054;2022-08-07T19:39:01;31.70;67.20
61386;DHT22;47256;18.904;-99.054;2022-08-07T19:41:33;31.60;65.10
61386;DHT22;47256;18.904;-99.054;2022-08-07T19:44:07;31.60;70.00
61386;DHT22;47256;18.904;-99.054;2022-08-07T19:46:42;31.60;69.90
61386;DHT22;47256;18.904;-99.054;2022-08-07T19:49:17;31.70;71.70
61386;DHT22;47256;18.904;-99.054;2022-08-07T19:51:45;31.80;67.80
61386;DHT22;47256;18.904;-99.054;2022-08-07T19:54:12;31.40;65.70
61386;DHT22;47256;18.904;-99.054;2022-08-07T19:56:42;31.40;69.80